Spitzerberg Airport LOAS

Flugplatz Daten

Name: Spitzerberg Airport

Ident: LOAS

Lat: 48,10219955

Long: 16,93530083

Platzhöhe: 600 ft

IataCode:

City: Spitzerberg

Metar

2022/05/23 00:00
CYLK 230000Z 06010KT 25SM FEW016 OVC033 M01/M05 A3007 RMK SC1SC7 LOAST STFD OB NEXT 231400 SLP200

Taf

Gewünschte Webcam nicht vorhanden? Dann fügen Sie eine hinzu. Sie wird dann so schnell wie möglich freigeschaltet
Url: Title: